createdAt,value
2022-09-12T00:00:11.123Z,15.22
2022-09-12T00:02:46.332Z,15.25
2022-09-12T00:05:19.267Z,15.16
2022-09-12T00:07:51.618Z,14.98
2022-09-12T00:10:24.040Z,14.97
2022-09-12T00:12:56.395Z,14.96
2022-09-12T00:15:28.712Z,15.01
2022-09-12T00:18:01.078Z,14.83
2022-09-12T00:20:34.093Z,14.78
2022-09-12T00:23:06.358Z,14.76
2022-09-12T00:25:42.375Z,14.69
2022-09-12T00:28:16.762Z,14.70
2022-09-12T00:30:49.395Z,14.79
2022-09-12T00:33:21.679Z,14.75
2022-09-12T00:35:54.683Z,14.75
2022-09-12T00:38:26.952Z,14.70
2022-09-12T00:40:59.298Z,14.67
2022-09-12T00:43:38.071Z,14.68
2022-09-12T00:46:17.796Z,14.56
2022-09-12T00:48:56.554Z,14.27
2022-09-12T00:51:32.567Z,14.41
2022-09-12T00:54:10.313Z,14.43
2022-09-12T00:56:45.894Z,14.47
2022-09-12T00:59:21.572Z,14.32
2022-09-12T01:01:54.732Z,14.39
2022-09-12T01:04:28.591Z,14.34
2022-09-12T01:07:05.035Z,14.33
2022-09-12T01:09:39.571Z,14.31
2022-09-12T01:12:14.338Z,14.12
2022-09-12T01:14:46.655Z,14.09
2022-09-12T01:17:19.013Z,14.10
2022-09-12T01:20:30.426Z,14.04
2022-09-12T01:23:24.829Z,13.95
2022-09-12T01:26:13.306Z,13.88
2022-09-12T01:29:14.070Z,13.89
2022-09-12T01:31:57.054Z,13.86
2022-09-12T01:34:36.511Z,13.81
2022-09-12T01:37:16.714Z,13.82
2022-09-12T01:39:56.718Z,13.80
2022-09-12T01:42:34.439Z,13.65
2022-09-12T01:45:11.316Z,13.45
2022-09-12T01:47:47.722Z,13.34
2022-09-12T01:50:24.705Z,13.40
2022-09-12T01:53:01.979Z,13.38
2022-09-12T01:55:41.012Z,13.35
2022-09-12T01:58:19.499Z,13.34
2022-09-12T02:00:59.183Z,13.24
2022-09-12T02:03:33.354Z,13.20
2022-09-12T02:06:09.959Z,13.16
2022-09-12T02:08:47.060Z,13.09
2022-09-12T02:11:20.183Z,13.04
2022-09-12T02:13:56.262Z,13.00
2022-09-12T02:16:33.599Z,13.06
2022-09-12T02:19:10.666Z,13.02
2022-09-12T02:21:48.080Z,12.92
2022-09-12T02:24:24.964Z,12.79
2022-09-12T02:27:00.967Z,12.85
2022-09-12T02:29:33.358Z,12.78
2022-09-12T02:32:12.391Z,12.77
2022-09-12T02:34:51.062Z,12.72
2022-09-12T02:37:42.042Z,12.68
2022-09-12T02:40:15.425Z,12.71
2022-09-12T02:42:47.718Z,12.69
2022-09-12T02:45:22.155Z,12.69
2022-09-12T02:48:00.130Z,12.69
2022-09-12T02:50:33.351Z,12.69
2022-09-12T02:53:07.218Z,12.65
2022-09-12T02:55:41.008Z,12.65
2022-09-12T02:58:18.113Z,12.48
2022-09-12T03:00:57.513Z,12.38
2022-09-12T03:03:52.286Z,12.49
2022-09-12T03:06:33.429Z,12.44
2022-09-12T03:09:12.490Z,12.42
2022-09-12T03:12:01.764Z,12.36
2022-09-12T03:15:02.128Z,12.28
2022-09-12T03:17:44.662Z,12.29
2022-09-12T03:20:26.867Z,12.28
2022-09-12T03:23:05.443Z,12.26
2022-09-12T03:25:43.845Z,12.17
2022-09-12T03:28:18.289Z,12.07
2022-09-12T03:30:52.718Z,12.15
2022-09-12T03:33:25.990Z,12.17
2022-09-12T03:35:58.395Z,12.03
2022-09-12T03:38:31.395Z,11.88
2022-09-12T03:41:04.167Z,11.89
2022-09-12T03:43:36.478Z,11.93
2022-09-12T03:46:08.826Z,11.93
2022-09-12T03:48:41.449Z,11.90
2022-09-12T03:51:13.805Z,11.93
2022-09-12T03:53:46.928Z,11.76
2022-09-12T03:56:20.215Z,11.69
2022-09-12T03:58:52.530Z,11.71
2022-09-12T04:01:24.920Z,11.63
2022-09-12T04:03:57.299Z,11.51
2022-09-12T04:06:30.474Z,11.65
2022-09-12T04:09:03.629Z,11.70
2022-09-12T04:11:36.113Z,11.64
2022-09-12T04:14:08.475Z,11.60
2022-09-12T04:16:40.867Z,11.57
2022-09-12T04:19:13.180Z,11.67
2022-09-12T04:21:45.514Z,11.70
2022-09-12T04:24:18.564Z,11.76
2022-09-12T04:26:50.908Z,11.86
2022-09-12T04:29:23.366Z,11.94
2022-09-12T04:31:55.651Z,11.99
2022-09-12T04:34:30.665Z,12.11
2022-09-12T04:37:03.167Z,12.15
2022-09-12T04:39:36.143Z,12.19
2022-09-12T04:42:08.498Z,12.24
2022-09-12T04:44:40.971Z,12.28
2022-09-12T04:47:13.258Z,12.19
2022-09-12T04:49:45.927Z,12.22
2022-09-12T04:52:18.208Z,12.28
2022-09-12T04:54:52.523Z,12.26
2022-09-12T04:57:25.288Z,12.32
2022-09-12T04:59:58.075Z,12.39
2022-09-12T05:02:30.396Z,12.42
2022-09-12T05:05:02.727Z,12.41
2022-09-12T05:07:35.649Z,12.40
2022-09-12T05:10:10.266Z,12.45
2022-09-12T05:12:42.623Z,12.51
2022-09-12T05:15:14.991Z,12.59
2022-09-12T05:17:47.304Z,12.54
2022-09-12T05:20:19.661Z,12.66
2022-09-12T05:22:52.032Z,12.62
2022-09-12T05:25:25.591Z,12.65
2022-09-12T05:27:57.918Z,12.69
2022-09-12T05:30:30.265Z,12.76
2022-09-12T05:33:02.519Z,12.82
2022-09-12T05:35:34.818Z,12.88
2022-09-12T05:38:07.577Z,12.93
2022-09-12T05:40:40.488Z,12.84
2022-09-12T05:43:13.158Z,12.83
2022-09-12T05:45:45.591Z,12.93
2022-09-12T05:48:17.879Z,12.96
2022-09-12T05:50:50.179Z,13.05
2022-09-12T05:53:22.566Z,12.97
2022-09-12T05:56:05.675Z,13.06
2022-09-12T05:58:40.455Z,13.13
2022-09-12T06:01:14.758Z,13.22
2022-09-12T06:03:48.999Z,13.12
2022-09-12T06:06:23.721Z,13.28
2022-09-12T06:08:58.970Z,13.33
2022-09-12T06:11:35.422Z,13.47
2022-09-12T06:14:09.168Z,13.49
2022-09-12T06:16:41.604Z,13.56
2022-09-12T06:19:16.282Z,13.63
2022-09-12T06:21:49.278Z,13.67
2022-09-12T06:24:21.629Z,13.67
2022-09-12T06:26:54.541Z,13.77
2022-09-12T06:29:26.860Z,13.87
2022-09-12T06:31:59.183Z,14.01
2022-09-12T06:34:31.602Z,13.96
2022-09-12T06:37:04.102Z,14.14
2022-09-12T06:39:37.709Z,14.30
2022-09-12T06:42:11.962Z,14.46
2022-09-12T06:44:44.261Z,14.61
2022-09-12T06:47:16.531Z,14.78
2022-09-12T06:49:50.247Z,14.86
2022-09-12T06:52:22.564Z,14.97
2022-09-12T06:54:54.858Z,15.07
2022-09-12T06:57:30.686Z,15.14
2022-09-12T07:00:04.571Z,15.21
2022-09-12T07:02:36.938Z,15.14
2022-09-12T07:05:10.414Z,15.14
2022-09-12T07:07:42.736Z,15.09
2022-09-12T07:10:19.002Z,15.04
2022-09-12T07:12:54.640Z,15.09
2022-09-12T07:15:26.959Z,14.98
2022-09-12T07:17:59.272Z,15.06
2022-09-12T07:20:32.490Z,15.03
2022-09-12T07:23:04.786Z,15.01
2022-09-12T07:25:37.106Z,15.09
2022-09-12T07:28:10.091Z,15.17
2022-09-12T07:30:42.401Z,15.22
2022-09-12T07:33:14.740Z,15.13
2022-09-12T07:35:47.477Z,14.96
2022-09-12T07:38:20.203Z,15.03
2022-09-12T07:40:52.854Z,15.03
2022-09-12T07:43:25.766Z,14.97
2022-09-12T07:45:58.100Z,15.16
2022-09-12T07:48:30.350Z,15.25
2022-09-12T07:51:05.124Z,15.37
2022-09-12T07:53:39.713Z,15.33
2022-09-12T07:56:13.065Z,15.28
2022-09-12T07:58:46.984Z,15.36
2022-09-12T08:01:22.462Z,15.53
2022-09-12T08:04:00.610Z,15.26
2022-09-12T08:06:35.256Z,15.50
2022-09-12T08:09:07.857Z,15.63
2022-09-12T08:11:40.236Z,15.82
2022-09-12T08:14:13.231Z,15.90
2022-09-12T08:16:45.519Z,16.01
2022-09-12T08:19:17.869Z,16.15
2022-09-12T08:21:50.175Z,16.30
2022-09-12T08:24:22.495Z,16.23
2022-09-12T08:26:54.863Z,16.24
2022-09-12T08:29:28.091Z,16.38
2022-09-12T08:32:00.435Z,16.50
2022-09-12T08:34:32.802Z,16.54
2022-09-12T08:37:05.175Z,16.63
2022-09-12T08:39:37.524Z,16.57
2022-09-12T08:42:15.840Z,16.65
2022-09-12T08:45:04.971Z,16.67
2022-09-12T08:47:40.015Z,16.75
2022-09-12T08:50:17.114Z,16.84
2022-09-12T08:52:57.800Z,16.88
2022-09-12T08:55:33.711Z,16.96
2022-09-12T08:58:13.285Z,17.04
2022-09-12T09:00:55.147Z,17.21
2022-09-12T09:03:55.838Z,17.29
2022-09-12T09:06:49.953Z,17.12
2022-09-12T09:09:38.929Z,17.16
2022-09-12T09:12:19.894Z,17.18
2022-09-12T09:15:14.223Z,17.15
2022-09-12T09:17:50.506Z,16.88
2022-09-12T09:20:30.571Z,16.89
2022-09-12T09:23:08.319Z,16.90
2022-09-12T09:25:48.616Z,17.08
2022-09-12T09:28:25.310Z,17.18
2022-09-12T09:30:58.148Z,17.29
2022-09-12T09:33:34.922Z,17.27
2022-09-12T09:36:16.597Z,17.29
2022-09-12T09:38:54.210Z,17.33
2022-09-12T09:41:40.262Z,17.51
2022-09-12T09:44:12.877Z,17.38
2022-09-12T09:46:45.216Z,17.35
2022-09-12T09:49:18.413Z,17.47
2022-09-12T09:51:51.175Z,17.54
2022-09-12T09:54:26.162Z,17.56
2022-09-12T09:56:58.552Z,17.67
2022-09-12T09:59:32.991Z,17.59
2022-09-12T10:02:24.172Z,17.71
2022-09-12T10:04:59.055Z,17.75
2022-09-12T10:07:31.650Z,17.55
2022-09-12T10:10:07.140Z,17.64
2022-09-12T10:12:39.583Z,17.84
2022-09-12T10:15:19.108Z,17.90
2022-09-12T10:17:51.577Z,17.64
2022-09-12T10:20:32.649Z,17.42
2022-09-12T10:23:28.728Z,17.42
2022-09-12T10:26:04.463Z,17.50
2022-09-12T10:28:40.350Z,17.78
2022-09-12T10:31:16.518Z,17.95
2022-09-12T10:33:52.066Z,18.22
2022-09-12T10:36:25.825Z,18.33
2022-09-12T10:39:01.884Z,18.29
2022-09-12T10:41:40.279Z,18.33
2022-09-12T10:44:15.847Z,18.84
2022-09-12T10:46:48.192Z,18.97
2022-09-12T10:49:26.201Z,19.20
2022-09-12T10:52:17.319Z,19.27
2022-09-12T10:54:50.018Z,19.44
2022-09-12T10:57:48.655Z,19.48
2022-09-12T11:00:27.002Z,19.52
2022-09-12T11:03:09.250Z,19.49
2022-09-12T11:05:53.171Z,19.55
2022-09-12T11:09:02.317Z,19.72
2022-09-12T11:11:45.954Z,19.55
2022-09-12T11:14:30.982Z,19.55
2022-09-12T11:17:14.595Z,19.62
2022-09-12T11:20:03.379Z,19.74
2022-09-12T11:22:54.312Z,19.83
2022-09-12T11:25:34.380Z,19.80
2022-09-12T11:28:25.067Z,19.75
2022-09-12T11:31:17.748Z,19.55
2022-09-12T11:33:54.975Z,19.34
2022-09-12T11:36:41.627Z,19.26
2022-09-12T11:39:15.491Z,19.18
2022-09-12T11:41:55.113Z,19.24
2022-09-12T11:44:38.693Z,19.21
2022-09-12T11:47:13.288Z,19.18
2022-09-12T11:49:49.745Z,19.26
2022-09-12T11:52:23.758Z,19.21
2022-09-12T11:55:01.135Z,19.11
2022-09-12T11:57:41.599Z,19.31
2022-09-12T12:00:17.648Z,19.37
2022-09-12T12:02:59.720Z,19.34
2022-09-12T12:05:42.013Z,19.32
2022-09-12T12:08:14.480Z,19.12
2022-09-12T12:10:52.478Z,19.08
2022-09-12T12:13:29.987Z,19.03
2022-09-12T12:16:06.732Z,19.10
2022-09-12T12:18:40.603Z,19.22
2022-09-12T12:21:31.211Z,19.19
2022-09-12T12:24:14.682Z,18.62
2022-09-12T12:26:59.458Z,18.61
2022-09-12T12:29:44.133Z,18.88
2022-09-12T12:32:22.458Z,18.83
2022-09-12T12:35:37.167Z,18.83
2022-09-12T12:38:28.450Z,18.75
2022-09-12T12:41:33.807Z,18.54
2022-09-12T12:44:39.354Z,18.61
2022-09-12T12:47:19.893Z,18.64
2022-09-12T12:49:55.744Z,18.84
2022-09-12T12:52:31.211Z,18.91
2022-09-12T12:55:05.058Z,18.70
2022-09-12T12:57:49.490Z,18.75
2022-09-12T13:00:34.595Z,18.65
2022-09-12T13:03:22.031Z,19.07
2022-09-12T13:05:59.624Z,18.70
2022-09-12T13:08:35.218Z,18.54
2022-09-12T13:11:11.592Z,18.78
2022-09-12T13:13:50.043Z,18.77
2022-09-12T13:16:36.311Z,18.84
2022-09-12T13:19:18.176Z,19.02
2022-09-12T13:21:55.520Z,19.02
2022-09-12T13:24:28.186Z,18.90
2022-09-12T13:27:01.511Z,19.05
2022-09-12T13:29:33.850Z,19.12
2022-09-12T13:32:06.313Z,18.92
2022-09-12T13:34:55.803Z,19.22
2022-09-12T13:37:51.470Z,19.34
2022-09-12T13:40:33.385Z,19.45
2022-09-12T13:43:14.557Z,19.16
2022-09-12T13:45:47.803Z,19.09
2022-09-12T13:48:23.441Z,19.03
2022-09-12T13:51:00.659Z,19.03
2022-09-12T13:53:42.017Z,19.05
2022-09-12T13:56:16.976Z,19.10
2022-09-12T13:58:54.877Z,18.91
2022-09-12T14:01:38.558Z,18.70
2022-09-12T14:04:35.039Z,18.43
2022-09-12T14:07:15.889Z,18.59
2022-09-12T14:09:54.273Z,18.76
2022-09-12T14:12:30.318Z,18.80
2022-09-12T14:15:03.298Z,18.90
2022-09-12T14:17:38.886Z,18.82
2022-09-12T14:20:17.830Z,18.80
2022-09-12T14:22:51.678Z,18.78
2022-09-12T14:25:24.902Z,18.80
2022-09-12T14:27:58.365Z,18.61
2022-09-12T14:30:32.634Z,18.84
2022-09-12T14:33:17.760Z,18.74
2022-09-12T14:35:52.373Z,18.49
2022-09-12T14:38:34.202Z,18.60
2022-09-12T14:41:08.460Z,18.69
2022-09-12T14:43:45.415Z,18.74
2022-09-12T14:46:22.263Z,18.67
2022-09-12T14:48:59.214Z,18.77
2022-09-12T14:51:34.682Z,18.67
2022-09-12T14:54:36.583Z,18.63
2022-09-12T14:57:38.721Z,18.62
2022-09-12T15:00:21.581Z,18.56
2022-09-12T15:02:54.374Z,18.86
2022-09-12T15:05:27.557Z,18.86
2022-09-12T15:08:00.847Z,18.81
2022-09-12T15:10:37.034Z,18.93
2022-09-12T15:13:15.941Z,19.04
2022-09-12T15:15:50.934Z,18.91
2022-09-12T15:18:25.120Z,18.92
2022-09-12T15:21:01.829Z,18.86
2022-09-12T15:23:39.470Z,18.78
2022-09-12T15:26:14.018Z,18.81
2022-09-12T15:28:46.506Z,18.84
2022-09-12T15:31:24.127Z,18.82
2022-09-12T15:33:57.972Z,18.89
2022-09-12T15:36:30.361Z,18.62
2022-09-12T15:39:03.023Z,18.58
2022-09-12T15:41:37.944Z,18.61
2022-09-12T15:44:12.195Z,18.74
2022-09-12T15:46:44.688Z,18.62
2022-09-12T15:49:17.072Z,18.41
2022-09-12T15:51:49.418Z,18.34
2022-09-12T15:54:21.863Z,18.31
2022-09-12T15:56:54.911Z,18.41
2022-09-12T15:59:27.300Z,18.52
2022-09-12T16:01:59.741Z,18.30
2022-09-12T16:04:32.269Z,18.47
2022-09-12T16:07:04.641Z,18.46
2022-09-12T16:09:37.351Z,18.45
2022-09-12T16:12:10.362Z,18.36
2022-09-12T16:14:42.681Z,18.34
2022-09-12T16:17:15.584Z,18.17
2022-09-12T16:19:47.906Z,18.35
2022-09-12T16:22:20.224Z,18.39
2022-09-12T16:24:52.685Z,18.38
2022-09-12T16:27:25.742Z,18.42
2022-09-12T16:29:58.141Z,18.41
2022-09-12T16:32:30.783Z,18.44
2022-09-12T16:35:03.763Z,18.45
2022-09-12T16:37:36.177Z,18.46
2022-09-12T16:40:09.723Z,18.42
2022-09-12T16:42:43.895Z,18.37
2022-09-12T16:45:16.398Z,18.38
2022-09-12T16:47:48.701Z,18.24
2022-09-12T16:50:21.155Z,18.22
2022-09-12T16:52:53.440Z,18.10
2022-09-12T16:55:28.210Z,18.12
2022-09-12T16:58:01.203Z,17.96
2022-09-12T17:00:33.547Z,18.00
2022-09-12T17:03:05.916Z,18.00
2022-09-12T17:05:38.414Z,17.91
2022-09-12T17:08:10.783Z,17.90
2022-09-12T17:10:43.093Z,17.53
2022-09-12T17:13:16.141Z,17.51
2022-09-12T17:15:48.461Z,17.55
2022-09-12T17:18:20.931Z,17.57
2022-09-12T17:20:53.295Z,17.56
2022-09-12T17:23:25.969Z,17.62
2022-09-12T17:25:58.447Z,17.61
2022-09-12T17:28:31.510Z,17.64
2022-09-12T17:31:05.858Z,17.63
2022-09-12T17:33:38.983Z,17.64
2022-09-12T17:36:14.660Z,17.71
2022-09-12T17:38:47.477Z,17.68
2022-09-12T17:41:23.503Z,17.64
2022-09-12T17:43:58.111Z,17.62
2022-09-12T17:46:34.061Z,17.54
2022-09-12T17:49:08.591Z,17.34
2022-09-12T17:51:44.197Z,17.30
2022-09-12T17:54:20.112Z,17.31
2022-09-12T17:56:52.669Z,17.26
2022-09-12T17:59:25.699Z,17.25
2022-09-12T18:02:13.017Z,17.16
2022-09-12T18:04:46.456Z,17.18
2022-09-12T18:07:21.532Z,17.03
2022-09-12T18:09:54.527Z,16.77
2022-09-12T18:12:26.827Z,16.83
2022-09-12T18:14:59.864Z,16.76
2022-09-12T18:17:34.816Z,16.72
2022-09-12T18:20:08.788Z,16.72
2022-09-12T18:22:44.133Z,16.64
2022-09-12T18:25:16.592Z,16.56
2022-09-12T18:27:49.005Z,16.45
2022-09-12T18:30:22.848Z,16.31
2022-09-12T18:32:56.182Z,16.18
2022-09-12T18:35:28.549Z,16.19
2022-09-12T18:38:00.839Z,16.10
2022-09-12T18:40:33.295Z,16.07
2022-09-12T18:43:05.709Z,16.04
2022-09-12T18:45:39.210Z,16.01
2022-09-12T18:48:21.027Z,15.87
2022-09-12T18:50:54.578Z,15.80
2022-09-12T18:53:27.173Z,15.84
2022-09-12T18:56:04.559Z,15.78
2022-09-12T18:58:38.051Z,15.71
2022-09-12T19:01:13.130Z,15.69
2022-09-12T19:03:49.351Z,15.71
2022-09-12T19:06:25.308Z,15.71
2022-09-12T19:09:02.704Z,15.64
2022-09-12T19:11:40.028Z,15.70
2022-09-12T19:14:15.437Z,15.60
2022-09-12T19:16:50.085Z,15.54
2022-09-12T19:19:22.691Z,15.48
2022-09-12T19:21:55.233Z,15.36
2022-09-12T19:24:31.941Z,15.37
2022-09-12T19:27:05.408Z,15.40
2022-09-12T19:29:38.050Z,15.37
2022-09-12T19:32:12.520Z,15.33
2022-09-12T19:34:44.866Z,15.38
2022-09-12T19:37:17.880Z,15.24
2022-09-12T19:39:51.318Z,15.05
2022-09-12T19:42:23.876Z,15.22
2022-09-12T19:44:57.765Z,15.22
2022-09-12T19:47:30.830Z,15.11
2022-09-12T19:50:03.847Z,15.16
2022-09-12T19:52:36.207Z,15.32
2022-09-12T19:55:11.327Z,15.37
2022-09-12T19:57:43.680Z,15.30
2022-09-12T20:00:16.190Z,15.30
2022-09-12T20:02:52.844Z,15.25
2022-09-12T20:05:25.414Z,15.29
2022-09-12T20:07:59.860Z,15.03
2022-09-12T20:10:32.196Z,15.20
2022-09-12T20:13:05.156Z,14.84
2022-09-12T20:15:37.624Z,14.96
2022-09-12T20:18:10.709Z,14.97
2022-09-12T20:20:43.554Z,15.01
2022-09-12T20:23:15.988Z,15.04
2022-09-12T20:25:48.324Z,15.05
2022-09-12T20:28:20.667Z,15.12
2022-09-12T20:30:53.065Z,14.90
2022-09-12T20:33:26.078Z,14.94
2022-09-12T20:36:06.598Z,14.89
2022-09-12T20:38:39.462Z,14.92
2022-09-12T20:41:12.017Z,14.93
2022-09-12T20:43:44.450Z,14.82
2022-09-12T20:46:21.443Z,14.82
2022-09-12T20:48:55.708Z,14.70
2022-09-12T20:51:29.699Z,14.66
2022-09-12T20:54:05.222Z,14.68
2022-09-12T20:56:37.781Z,14.69
2022-09-12T20:59:11.896Z,14.61
2022-09-12T21:01:44.299Z,14.66
2022-09-12T21:04:18.339Z,14.65
2022-09-12T21:06:50.752Z,14.57
2022-09-12T21:09:23.023Z,14.54
2022-09-12T21:11:55.314Z,14.48
2022-09-12T21:14:27.551Z,14.45
2022-09-12T21:16:59.811Z,14.42
2022-09-12T21:19:32.868Z,14.27
2022-09-12T21:22:05.161Z,14.14
2022-09-12T21:24:37.481Z,14.14
2022-09-12T21:27:09.814Z,14.10
2022-09-12T21:29:42.106Z,14.09
2022-09-12T21:32:14.509Z,14.00
2022-09-12T21:34:47.503Z,13.90
2022-09-12T21:37:19.772Z,13.83
2022-09-12T21:39:52.178Z,13.83
2022-09-12T21:42:24.873Z,13.85
2022-09-12T21:44:57.198Z,13.79
2022-09-12T21:47:29.649Z,13.73
2022-09-12T21:50:02.614Z,13.72
2022-09-12T21:52:35.306Z,13.61
2022-09-12T21:55:09.214Z,13.56
2022-09-12T21:57:41.582Z,13.47
2022-09-12T22:00:15.154Z,13.43
2022-09-12T22:02:47.481Z,13.24
2022-09-12T22:05:23.971Z,13.01
2022-09-12T22:07:56.345Z,12.93
2022-09-12T22:10:28.638Z,12.81
2022-09-12T22:13:01.241Z,12.81
2022-09-12T22:15:40.669Z,12.78
2022-09-12T22:18:13.509Z,12.69
2022-09-12T22:20:46.449Z,12.65
2022-09-12T22:23:36.816Z,12.68
2022-09-12T22:26:09.226Z,12.62
2022-09-12T22:28:42.288Z,12.65
2022-09-12T22:31:15.694Z,12.62
2022-09-12T22:33:48.306Z,12.60
2022-09-12T22:36:21.341Z,12.55
2022-09-12T22:38:53.615Z,12.51
2022-09-12T22:41:25.992Z,12.53
2022-09-12T22:43:58.455Z,12.47
2022-09-12T22:46:30.875Z,12.34
2022-09-12T22:49:04.306Z,12.37
2022-09-12T22:51:37.312Z,12.28
2022-09-12T22:54:10.278Z,12.25
2022-09-12T22:56:42.652Z,12.17
2022-09-12T22:59:14.989Z,12.18
2022-09-12T23:01:47.390Z,12.18
2022-09-12T23:04:19.691Z,12.20
2022-09-12T23:06:52.734Z,12.15
2022-09-12T23:09:25.094Z,12.12
2022-09-12T23:11:57.410Z,12.12
2022-09-12T23:14:29.769Z,12.06
2022-09-12T23:17:02.141Z,11.99
2022-09-12T23:19:34.472Z,11.91
2022-09-12T23:22:07.420Z,11.95
2022-09-12T23:24:39.689Z,12.03
2022-09-12T23:27:11.915Z,12.02
2022-09-12T23:29:44.191Z,11.91
2022-09-12T23:32:16.920Z,11.84
2022-09-12T23:34:49.309Z,11.90
2022-09-12T23:37:22.278Z,11.91
2022-09-12T23:39:54.619Z,11.90
2022-09-12T23:42:26.894Z,11.90
2022-09-12T23:44:59.204Z,11.85
2022-09-12T23:47:31.578Z,11.81
2022-09-12T23:50:04.356Z,11.81
2022-09-12T23:52:37.346Z,11.78
2022-09-12T23:55:09.828Z,11.75
2022-09-12T23:57:42.122Z,11.73
